createdAt,value
2022-10-02T00:00:54.338Z,4.00
2022-10-02T00:01:54.342Z,4.40
2022-10-02T00:02:54.311Z,4.80
2022-10-02T00:03:54.275Z,4.40
2022-10-02T00:04:54.242Z,4.20
2022-10-02T00:05:54.217Z,4.00
2022-10-02T00:06:54.193Z,4.00
2022-10-02T00:07:54.169Z,3.70
2022-10-02T00:08:54.147Z,4.50
2022-10-02T00:09:54.127Z,4.30
2022-10-02T00:10:54.098Z,4.30
2022-10-02T00:11:54.085Z,4.90
2022-10-02T00:12:54.054Z,4.60
2022-10-02T00:13:54.030Z,4.70
2022-10-02T00:14:54.007Z,3.80
2022-10-02T00:15:53.981Z,4.40
2022-10-02T00:16:54.110Z,4.60
2022-10-02T00:17:53.935Z,5.20
2022-10-02T00:18:53.934Z,4.00
2022-10-02T00:19:53.889Z,4.60
2022-10-02T00:20:53.870Z,5.10
2022-10-02T00:21:53.843Z,4.50
2022-10-02T00:22:53.821Z,4.60
2022-10-02T00:23:53.798Z,3.90
2022-10-02T00:24:53.772Z,4.50
2022-10-02T00:25:53.753Z,4.40
2022-10-02T00:26:53.726Z,4.40
2022-10-02T00:27:53.755Z,4.90
2022-10-02T00:28:53.677Z,4.30
2022-10-02T00:29:53.652Z,4.80
2022-10-02T00:30:53.630Z,5.10
2022-10-02T00:31:53.656Z,4.90
2022-10-02T00:32:53.583Z,4.60
2022-10-02T00:33:53.557Z,4.90
2022-10-02T00:34:53.560Z,4.70
2022-10-02T00:35:53.513Z,5.20
2022-10-02T00:36:53.491Z,4.30
2022-10-02T00:37:53.463Z,4.60
2022-10-02T00:38:53.442Z,5.40
2022-10-02T00:39:53.418Z,4.60
2022-10-02T00:40:53.395Z,5.20
2022-10-02T00:41:53.376Z,5.50
2022-10-02T00:42:53.353Z,4.30
2022-10-02T00:43:53.323Z,5.00
2022-10-02T00:44:53.299Z,4.90
2022-10-02T00:45:53.354Z,4.90
2022-10-02T00:46:53.255Z,5.00
2022-10-02T00:47:53.230Z,4.70
2022-10-02T00:48:53.210Z,5.10
2022-10-02T00:49:53.180Z,4.60
2022-10-02T00:50:53.181Z,4.80
2022-10-02T00:51:53.136Z,5.80
2022-10-02T00:52:53.112Z,4.70
2022-10-02T00:53:53.089Z,4.80
2022-10-02T00:54:53.064Z,4.80
2022-10-02T00:55:53.041Z,5.60
2022-10-02T00:56:53.020Z,4.80
2022-10-02T00:57:52.993Z,4.90
2022-10-02T00:58:52.974Z,5.80
2022-10-02T00:59:52.945Z,5.00
2022-10-02T01:00:52.958Z,5.40
2022-10-02T01:01:53.010Z,6.00
2022-10-02T01:02:52.877Z,4.90
2022-10-02T01:03:52.857Z,5.80
2022-10-02T01:04:52.830Z,5.40
2022-10-02T01:05:52.808Z,5.30
2022-10-02T01:06:52.803Z,5.70
2022-10-02T01:07:52.762Z,6.20
2022-10-02T01:08:52.741Z,5.90
2022-10-02T01:09:52.715Z,5.40
2022-10-02T01:10:52.688Z,5.40
2022-10-02T01:11:52.668Z,5.80
2022-10-02T01:12:52.645Z,5.00
2022-10-02T01:13:52.618Z,5.70
2022-10-02T01:14:52.595Z,5.50
2022-10-02T01:15:52.573Z,6.50
2022-10-02T01:16:52.579Z,6.00
2022-10-02T01:17:52.526Z,4.90
2022-10-02T01:18:52.500Z,6.20
2022-10-02T01:19:52.480Z,5.70
2022-10-02T01:20:52.452Z,6.00
2022-10-02T01:21:52.434Z,5.30
2022-10-02T01:22:52.426Z,5.40
2022-10-02T01:23:52.386Z,5.30
2022-10-02T01:24:52.358Z,6.00
2022-10-02T01:25:52.334Z,6.00
2022-10-02T01:26:52.315Z,6.30
2022-10-02T01:27:52.350Z,5.90
2022-10-02T01:28:52.268Z,6.10
2022-10-02T01:29:52.243Z,6.50
2022-10-02T01:30:52.217Z,5.50
2022-10-02T01:31:52.279Z,5.50
2022-10-02T01:32:52.171Z,5.80
2022-10-02T01:33:52.147Z,5.90
2022-10-02T01:34:52.123Z,5.40
2022-10-02T01:35:52.101Z,5.70
2022-10-02T01:36:52.077Z,5.90
2022-10-02T01:37:52.053Z,6.10
2022-10-02T01:38:52.052Z,5.70
2022-10-02T01:39:52.007Z,5.60
2022-10-02T01:40:51.983Z,5.50
2022-10-02T01:41:51.962Z,5.80
2022-10-02T01:42:51.938Z,5.70
2022-10-02T01:43:51.914Z,5.90
2022-10-02T01:44:51.889Z,5.50
2022-10-02T01:45:51.935Z,6.40
2022-10-02T01:46:51.842Z,5.80
2022-10-02T01:47:51.823Z,6.40
2022-10-02T01:48:51.795Z,6.30
2022-10-02T01:49:51.772Z,5.80
2022-10-02T01:50:51.748Z,5.80
2022-10-02T01:51:51.731Z,6.20
2022-10-02T01:52:51.705Z,6.90
2022-10-02T01:53:51.678Z,7.30
2022-10-02T01:54:51.675Z,5.60
2022-10-02T01:55:51.632Z,5.80
2022-10-02T01:56:51.609Z,6.60
2022-10-02T01:57:51.587Z,6.70
2022-10-02T01:58:51.564Z,5.90
2022-10-02T01:59:51.539Z,6.20
2022-10-02T02:00:51.611Z,5.80
2022-10-02T02:01:51.559Z,5.90
2022-10-02T02:02:51.480Z,5.30
2022-10-02T02:03:51.446Z,6.40
2022-10-02T02:04:51.423Z,5.50
2022-10-02T02:05:51.402Z,7.00
2022-10-02T02:06:51.374Z,6.30
2022-10-02T02:07:51.353Z,7.50
2022-10-02T02:08:51.331Z,6.70
2022-10-02T02:09:51.306Z,6.60
2022-10-02T02:10:51.300Z,6.50
2022-10-02T02:11:51.257Z,6.90
2022-10-02T02:12:51.246Z,6.00
2022-10-02T02:13:51.215Z,7.10
2022-10-02T02:14:51.193Z,6.90
2022-10-02T02:15:51.165Z,7.40
2022-10-02T02:16:51.168Z,6.80
2022-10-02T02:17:51.116Z,7.30
2022-10-02T02:18:51.096Z,6.50
2022-10-02T02:19:51.073Z,6.90
2022-10-02T02:20:51.047Z,6.90
2022-10-02T02:21:51.023Z,8.50
2022-10-02T02:22:51.002Z,8.00
2022-10-02T02:23:50.978Z,7.70
2022-10-02T02:24:50.952Z,6.90
2022-10-02T02:25:50.928Z,7.20
2022-10-02T02:26:50.927Z,7.50
2022-10-02T02:27:50.958Z,7.80
2022-10-02T02:28:50.862Z,7.00
2022-10-02T02:29:50.840Z,7.20
2022-10-02T02:30:50.812Z,6.90
2022-10-02T02:31:50.844Z,7.50
2022-10-02T02:32:50.770Z,7.80
2022-10-02T02:33:50.743Z,7.60
2022-10-02T02:34:50.719Z,7.30
2022-10-02T02:35:50.697Z,7.50
2022-10-02T02:36:50.671Z,7.70
2022-10-02T02:37:50.649Z,7.50
2022-10-02T02:38:50.630Z,7.10
2022-10-02T02:39:50.603Z,7.80
2022-10-02T02:40:50.580Z,6.40
2022-10-02T02:41:50.556Z,8.00
2022-10-02T02:42:50.553Z,7.50
2022-10-02T02:43:50.510Z,7.60
2022-10-02T02:44:50.488Z,7.10
2022-10-02T02:45:50.495Z,7.60
2022-10-02T02:46:50.449Z,7.30
2022-10-02T02:47:50.420Z,6.70
2022-10-02T02:48:50.394Z,7.70
2022-10-02T02:49:50.372Z,7.50
2022-10-02T02:50:50.348Z,8.00
2022-10-02T02:51:50.326Z,7.10
2022-10-02T02:52:50.299Z,7.60
2022-10-02T02:53:50.276Z,7.90
2022-10-02T02:54:50.257Z,7.50
2022-10-02T02:55:50.233Z,7.80
2022-10-02T02:56:50.208Z,8.20
2022-10-02T02:57:50.185Z,8.50
2022-10-02T02:58:50.202Z,7.30
2022-10-02T02:59:50.136Z,7.30
2022-10-02T03:00:50.184Z,7.10
2022-10-02T03:01:50.154Z,7.20
2022-10-02T03:02:50.068Z,8.30
2022-10-02T03:03:50.046Z,7.50
2022-10-02T03:04:50.027Z,7.20
2022-10-02T03:05:49.997Z,7.70
2022-10-02T03:06:49.973Z,8.40
2022-10-02T03:07:49.953Z,7.70
2022-10-02T03:08:49.927Z,7.90
2022-10-02T03:09:49.907Z,8.80
2022-10-02T03:10:49.885Z,8.80
2022-10-02T03:11:49.865Z,8.90
2022-10-02T03:12:49.835Z,8.10
2022-10-02T03:13:49.815Z,8.40
2022-10-02T03:14:49.809Z,7.80
2022-10-02T03:15:49.851Z,8.20
2022-10-02T03:16:49.748Z,8.30
2022-10-02T03:17:49.723Z,9.50
2022-10-02T03:18:49.695Z,8.50
2022-10-02T03:19:49.675Z,8.60
2022-10-02T03:20:49.650Z,8.40
2022-10-02T03:21:49.630Z,8.60
2022-10-02T03:22:49.605Z,8.00
2022-10-02T03:23:49.584Z,9.20
2022-10-02T03:24:49.561Z,9.60
2022-10-02T03:25:49.540Z,8.60
2022-10-02T03:26:49.513Z,9.20
2022-10-02T03:27:49.516Z,9.50
2022-10-02T03:28:57.222Z,9.00
2022-10-02T03:29:49.442Z,8.80
2022-10-02T03:30:49.438Z,9.50
2022-10-02T03:31:49.437Z,9.80
2022-10-02T03:32:49.373Z,9.70
2022-10-02T03:33:49.354Z,10.40
2022-10-02T03:34:49.327Z,10.80
2022-10-02T03:35:49.306Z,11.70
2022-10-02T03:36:49.282Z,11.90
2022-10-02T03:37:49.256Z,11.80
2022-10-02T03:38:57.028Z,11.30
2022-10-02T03:39:49.212Z,11.80
2022-10-02T03:40:49.189Z,12.40
2022-10-02T03:41:49.167Z,13.70
2022-10-02T03:42:49.148Z,12.20
2022-10-02T03:43:49.118Z,13.20
2022-10-02T03:44:49.097Z,12.40
2022-10-02T03:45:51.752Z,12.80
2022-10-02T03:46:49.170Z,12.90
2022-10-02T03:47:49.029Z,13.60
2022-10-02T03:48:49.004Z,13.10
2022-10-02T03:49:48.981Z,14.30
2022-10-02T03:50:48.956Z,15.10
2022-10-02T03:51:48.935Z,14.90
2022-10-02T03:52:48.911Z,15.30
2022-10-02T03:53:48.885Z,15.70
2022-10-02T03:54:48.862Z,15.00
2022-10-02T03:55:48.840Z,15.50
2022-10-02T03:56:48.821Z,16.30
2022-10-02T03:57:48.795Z,17.50
2022-10-02T03:58:48.772Z,17.70
2022-10-02T03:59:48.747Z,17.80
2022-10-02T04:00:48.724Z,17.50
2022-10-02T04:01:49.373Z,18.30
2022-10-02T04:02:48.696Z,18.00
2022-10-02T04:03:48.748Z,18.80
2022-10-02T04:04:48.634Z,18.70
2022-10-02T04:05:48.612Z,19.10
2022-10-02T04:06:48.913Z,18.30
2022-10-02T04:07:52.594Z,19.30
2022-10-02T04:08:48.541Z,18.00
2022-10-02T04:09:48.517Z,19.20
2022-10-02T04:10:48.498Z,18.00
2022-10-02T04:11:48.471Z,18.80
2022-10-02T04:12:48.445Z,18.20
2022-10-02T04:13:48.424Z,17.40
2022-10-02T04:14:48.400Z,17.90
2022-10-02T04:15:48.417Z,18.30
2022-10-02T04:16:48.357Z,18.10
2022-10-02T04:17:48.329Z,17.80
2022-10-02T04:18:48.325Z,17.40
2022-10-02T04:19:48.288Z,17.80
2022-10-02T04:20:48.259Z,18.50
2022-10-02T04:21:48.237Z,19.40
2022-10-02T04:22:48.217Z,18.40
2022-10-02T04:23:48.196Z,17.50
2022-10-02T04:24:48.169Z,18.30
2022-10-02T04:25:48.154Z,18.50
2022-10-02T04:26:48.119Z,18.50
2022-10-02T04:27:48.201Z,18.20
2022-10-02T04:28:48.078Z,18.60
2022-10-02T04:29:48.051Z,17.90
2022-10-02T04:30:48.032Z,19.60
2022-10-02T04:31:48.091Z,19.80
2022-10-02T04:32:48.074Z,18.40
2022-10-02T04:33:47.959Z,18.10
2022-10-02T04:34:47.956Z,18.00
2022-10-02T04:35:47.912Z,20.20
2022-10-02T04:36:47.889Z,19.20
2022-10-02T04:37:47.989Z,19.10
2022-10-02T04:38:47.842Z,19.70
2022-10-02T04:39:47.819Z,18.10
2022-10-02T04:40:47.796Z,18.70
2022-10-02T04:41:47.775Z,19.60
2022-10-02T04:42:47.749Z,19.30
2022-10-02T04:43:47.727Z,18.60
2022-10-02T04:44:47.702Z,18.90
2022-10-02T04:45:47.752Z,20.00
2022-10-02T04:46:47.657Z,19.50
2022-10-02T04:47:47.632Z,20.20
2022-10-02T04:48:47.615Z,20.30
2022-10-02T04:49:47.589Z,20.00
2022-10-02T04:50:47.582Z,21.90
2022-10-02T04:51:47.540Z,20.10
2022-10-02T04:52:47.516Z,21.10
2022-10-02T04:53:47.502Z,20.60
2022-10-02T04:54:47.472Z,20.20
2022-10-02T04:55:47.448Z,19.90
2022-10-02T04:56:47.424Z,20.30
2022-10-02T04:57:47.401Z,19.90
2022-10-02T04:58:47.379Z,21.30
2022-10-02T04:59:47.354Z,19.60
2022-10-02T05:00:47.407Z,21.00
2022-10-02T05:01:47.376Z,20.50
2022-10-02T05:02:47.286Z,20.60
2022-10-02T05:03:47.262Z,21.60
2022-10-02T05:04:47.242Z,20.90
2022-10-02T05:05:47.220Z,20.90
2022-10-02T05:06:47.212Z,19.60
2022-10-02T05:07:47.171Z,21.40
2022-10-02T05:08:47.147Z,21.20
2022-10-02T05:09:47.123Z,20.80
2022-10-02T05:10:47.099Z,20.90
2022-10-02T05:11:47.075Z,20.80
2022-10-02T05:12:47.058Z,20.30
2022-10-02T05:13:47.026Z,20.30
2022-10-02T05:14:47.006Z,20.90
2022-10-02T05:15:47.006Z,19.40
2022-10-02T05:16:46.961Z,21.50
2022-10-02T05:17:46.934Z,19.40
2022-10-02T05:18:46.915Z,19.70
2022-10-02T05:19:46.888Z,20.90
2022-10-02T05:20:46.872Z,21.30
2022-10-02T05:21:46.847Z,19.90
2022-10-02T05:22:46.841Z,20.40
2022-10-02T05:23:46.800Z,19.70
2022-10-02T05:24:46.782Z,20.40
2022-10-02T05:25:46.755Z,20.60
2022-10-02T05:26:46.726Z,20.60
2022-10-02T05:27:46.750Z,20.10
2022-10-02T05:28:46.683Z,19.70
2022-10-02T05:29:46.656Z,21.30
2022-10-02T05:30:46.636Z,18.70
2022-10-02T05:31:46.675Z,20.20
2022-10-02T05:32:46.589Z,20.60
2022-10-02T05:33:48.509Z,20.70
2022-10-02T05:34:46.543Z,20.40
2022-10-02T05:35:46.522Z,20.80
2022-10-02T05:36:46.499Z,19.80
2022-10-02T05:37:46.471Z,19.50
2022-10-02T05:38:46.470Z,20.90
2022-10-02T05:39:46.424Z,20.50
2022-10-02T05:40:46.406Z,20.40
2022-10-02T05:41:46.380Z,19.50
2022-10-02T05:42:46.356Z,20.20
2022-10-02T05:43:46.334Z,21.40
2022-10-02T05:44:46.312Z,18.90
2022-10-02T05:45:46.285Z,19.10
2022-10-02T05:46:46.298Z,20.50
2022-10-02T05:47:46.244Z,20.00
2022-10-02T05:48:46.221Z,20.00
2022-10-02T05:49:46.196Z,20.50
2022-10-02T05:50:46.180Z,20.00
2022-10-02T05:51:46.150Z,19.00
2022-10-02T05:52:46.124Z,19.10
2022-10-02T05:53:46.105Z,20.00
2022-10-02T05:54:46.098Z,19.90
2022-10-02T05:55:46.055Z,20.50
2022-10-02T05:56:46.037Z,20.20
2022-10-02T05:57:46.009Z,21.00
2022-10-02T05:58:45.990Z,20.60
2022-10-02T05:59:45.970Z,20.90
2022-10-02T06:00:46.015Z,21.20
2022-10-02T06:01:45.967Z,20.40
2022-10-02T06:02:45.895Z,22.00
2022-10-02T06:03:45.872Z,21.20
2022-10-02T06:04:45.852Z,20.60
2022-10-02T06:05:45.825Z,19.60
2022-10-02T06:06:45.806Z,20.10
2022-10-02T06:07:45.788Z,19.70
2022-10-02T06:08:45.763Z,20.60
2022-10-02T06:09:45.737Z,20.70
2022-10-02T06:10:45.733Z,19.50
2022-10-02T06:11:45.688Z,19.90
2022-10-02T06:12:45.670Z,19.90
2022-10-02T06:13:45.644Z,19.20
2022-10-02T06:14:50.463Z,19.80
2022-10-02T06:15:45.595Z,20.10
2022-10-02T06:16:45.619Z,21.00
2022-10-02T06:17:45.553Z,21.20
2022-10-02T06:18:45.530Z,19.80
2022-10-02T06:19:45.506Z,18.80
2022-10-02T06:20:45.484Z,19.20
2022-10-02T06:21:45.459Z,19.10
2022-10-02T06:22:45.438Z,19.40
2022-10-02T06:23:45.415Z,19.60
2022-10-02T06:24:45.393Z,18.80
2022-10-02T06:25:45.369Z,19.10
2022-10-02T06:26:45.364Z,18.50
2022-10-02T06:27:45.333Z,19.70
2022-10-02T06:28:45.301Z,19.80
2022-10-02T06:29:45.276Z,18.00
2022-10-02T06:30:45.260Z,18.90
2022-10-02T06:31:45.307Z,19.90
2022-10-02T06:32:45.211Z,19.40
2022-10-02T06:33:45.190Z,19.00
2022-10-02T06:34:47.944Z,19.80
2022-10-02T06:35:45.144Z,20.00
2022-10-02T06:36:45.153Z,19.60
2022-10-02T06:37:45.105Z,19.60
2022-10-02T06:38:45.076Z,18.70
2022-10-02T06:39:45.054Z,18.80
2022-10-02T06:40:45.027Z,19.80
2022-10-02T06:41:45.025Z,18.90
2022-10-02T06:42:45.002Z,18.60
2022-10-02T06:43:44.962Z,17.10
2022-10-02T06:44:44.938Z,18.10
2022-10-02T06:45:44.962Z,17.50
2022-10-02T06:46:47.397Z,17.80
2022-10-02T06:47:44.870Z,18.50
2022-10-02T06:48:44.848Z,19.40
2022-10-02T06:49:44.823Z,17.60
2022-10-02T06:50:44.806Z,18.20
2022-10-02T06:51:44.782Z,17.90
2022-10-02T06:52:44.757Z,18.50
2022-10-02T06:53:44.736Z,18.40
2022-10-02T06:54:44.711Z,18.00
2022-10-02T06:55:44.690Z,17.60
2022-10-02T06:56:44.870Z,17.80
2022-10-02T06:57:44.645Z,18.80
2022-10-02T06:58:44.639Z,17.50
2022-10-02T06:59:44.594Z,16.90
2022-10-02T07:00:44.616Z,16.60
2022-10-02T07:01:44.590Z,18.00
2022-10-02T07:02:44.530Z,16.50
2022-10-02T07:03:44.502Z,15.60
2022-10-02T07:04:44.484Z,17.30
2022-10-02T07:05:44.466Z,16.20
2022-10-02T07:06:44.437Z,16.70
2022-10-02T07:07:44.415Z,16.70
2022-10-02T07:08:44.397Z,15.60
2022-10-02T07:09:44.370Z,17.60
2022-10-02T07:10:44.348Z,16.20
2022-10-02T07:11:44.328Z,15.70
2022-10-02T07:12:44.303Z,16.10
2022-10-02T07:13:44.281Z,16.30
2022-10-02T07:14:44.276Z,17.80
2022-10-02T07:15:44.242Z,15.70
2022-10-02T07:16:44.238Z,15.60
2022-10-02T07:17:44.190Z,16.10
2022-10-02T07:18:44.169Z,15.90
2022-10-02T07:19:44.140Z,15.90
2022-10-02T07:20:44.124Z,15.80
2022-10-02T07:21:44.102Z,16.00
2022-10-02T07:22:45.663Z,15.30
2022-10-02T07:23:44.051Z,15.80
2022-10-02T07:24:44.042Z,15.30
2022-10-02T07:25:44.004Z,14.70
2022-10-02T07:26:43.982Z,14.70
2022-10-02T07:27:43.960Z,14.00
2022-10-02T07:28:43.938Z,15.70
2022-10-02T07:29:43.912Z,15.20
2022-10-02T07:30:43.916Z,15.80
2022-10-02T07:31:44.018Z,15.00
2022-10-02T07:32:43.863Z,14.80
2022-10-02T07:33:43.822Z,15.00
2022-10-02T07:34:43.809Z,14.10
2022-10-02T07:35:43.786Z,14.50
2022-10-02T07:36:43.782Z,15.70
2022-10-02T07:37:43.733Z,14.10
2022-10-02T07:38:43.712Z,15.30
2022-10-02T07:39:43.688Z,14.60
2022-10-02T07:40:43.665Z,14.80
2022-10-02T07:41:43.644Z,13.60
2022-10-02T07:42:43.624Z,14.60
2022-10-02T07:43:43.603Z,15.50
2022-10-02T07:44:43.576Z,13.00
2022-10-02T07:45:43.636Z,13.00
2022-10-02T07:46:43.549Z,13.90
2022-10-02T07:47:43.507Z,14.30
2022-10-02T07:48:43.485Z,13.30
2022-10-02T07:49:43.460Z,13.00
2022-10-02T07:50:43.439Z,13.80
2022-10-02T07:51:43.416Z,12.30
2022-10-02T07:52:43.396Z,13.50
2022-10-02T07:53:43.370Z,14.20
2022-10-02T07:54:43.349Z,12.20
2022-10-02T07:55:43.332Z,13.20
2022-10-02T07:56:43.308Z,11.80
2022-10-02T07:57:43.284Z,13.10
2022-10-02T07:58:43.261Z,13.30
2022-10-02T07:59:43.237Z,12.20
2022-10-02T08:00:43.216Z,12.30
2022-10-02T08:01:43.216Z,13.00
2022-10-02T08:02:43.189Z,12.10
2022-10-02T08:03:43.147Z,12.10
2022-10-02T08:04:43.127Z,12.60
2022-10-02T08:05:43.102Z,12.10
2022-10-02T08:06:43.080Z,12.90
2022-10-02T08:07:43.055Z,11.70
2022-10-02T08:08:43.036Z,11.70
2022-10-02T08:09:43.011Z,11.40
2022-10-02T08:10:42.990Z,11.10
2022-10-02T08:11:47.271Z,11.30
2022-10-02T08:12:42.950Z,9.90
2022-10-02T08:13:42.921Z,11.10
2022-10-02T08:14:42.898Z,11.90
2022-10-02T08:15:42.879Z,10.60
2022-10-02T08:16:42.915Z,11.20
2022-10-02T08:17:42.834Z,10.80
2022-10-02T08:18:42.827Z,10.00
2022-10-02T08:19:42.787Z,10.00
2022-10-02T08:20:42.766Z,10.60
2022-10-02T08:21:42.945Z,10.40
2022-10-02T08:22:42.727Z,10.60
2022-10-02T08:23:42.697Z,10.30
2022-10-02T08:24:42.684Z,10.10
2022-10-02T08:25:42.651Z,10.10
2022-10-02T08:26:42.904Z,10.80
2022-10-02T08:27:42.609Z,10.60
2022-10-02T08:28:42.590Z,10.40
2022-10-02T08:29:42.563Z,9.40
2022-10-02T08:30:42.541Z,9.40
2022-10-02T08:31:42.643Z,9.40
2022-10-02T08:32:42.496Z,8.80
2022-10-02T08:33:42.519Z,9.70
2022-10-02T08:34:42.482Z,9.70
2022-10-02T08:35:42.432Z,9.70
2022-10-02T08:36:42.412Z,8.90
2022-10-02T08:37:42.389Z,10.30
2022-10-02T08:38:42.369Z,9.10
2022-10-02T08:39:42.344Z,8.60
2022-10-02T08:40:42.321Z,8.60
2022-10-02T08:41:42.293Z,9.10
2022-10-02T08:42:42.273Z,9.20
2022-10-02T08:43:42.249Z,8.90
2022-10-02T08:44:42.228Z,8.20
2022-10-02T08:45:42.235Z,8.20
2022-10-02T08:46:42.186Z,9.40
2022-10-02T08:47:42.165Z,9.20
2022-10-02T08:48:42.342Z,8.20
2022-10-02T08:49:42.118Z,8.80
2022-10-02T08:50:42.117Z,8.80
2022-10-02T08:51:42.074Z,8.20
2022-10-02T08:52:42.055Z,7.70
2022-10-02T08:53:42.030Z,7.50
2022-10-02T08:54:42.019Z,8.60
2022-10-02T08:55:42.009Z,8.20
2022-10-02T08:56:41.963Z,7.80
2022-10-02T08:57:41.937Z,7.50
2022-10-02T08:58:41.920Z,8.90
2022-10-02T08:59:41.896Z,7.60
2022-10-02T09:00:41.938Z,7.00
2022-10-02T09:01:41.856Z,6.80
2022-10-02T09:02:41.829Z,7.60
2022-10-02T09:03:41.807Z,8.30
2022-10-02T09:04:41.786Z,7.40
2022-10-02T09:05:41.762Z,7.10
2022-10-02T09:06:41.759Z,8.20
2022-10-02T09:07:41.720Z,6.90
2022-10-02T09:08:41.698Z,7.40
2022-10-02T09:09:41.674Z,7.20
2022-10-02T09:10:41.657Z,6.60
2022-10-02T09:11:41.631Z,7.00
2022-10-02T09:12:41.615Z,7.70
2022-10-02T09:13:41.589Z,7.00
2022-10-02T09:14:41.564Z,6.80
2022-10-02T09:15:41.540Z,6.90
2022-10-02T09:16:41.587Z,6.10
2022-10-02T09:17:41.496Z,7.30
2022-10-02T09:18:41.476Z,6.00
2022-10-02T09:19:41.454Z,6.10
2022-10-02T09:20:41.431Z,5.90
2022-10-02T09:21:41.409Z,6.40
2022-10-02T09:22:41.422Z,6.40
2022-10-02T09:23:41.364Z,6.70
2022-10-02T09:24:41.345Z,6.00
2022-10-02T09:25:41.325Z,6.60
2022-10-02T09:26:41.298Z,7.20
2022-10-02T09:27:41.278Z,6.50
2022-10-02T09:28:41.257Z,5.90
2022-10-02T09:29:41.237Z,5.80
2022-10-02T09:30:41.209Z,6.20
2022-10-02T09:31:41.272Z,6.20
2022-10-02T09:32:41.167Z,5.20
2022-10-02T09:33:41.145Z,6.20
2022-10-02T09:34:41.121Z,5.90
2022-10-02T09:35:41.105Z,5.90
2022-10-02T09:36:41.080Z,5.40
2022-10-02T09:37:41.060Z,5.00
2022-10-02T09:38:41.054Z,5.30
2022-10-02T09:39:41.016Z,5.40
2022-10-02T09:40:40.991Z,4.90
2022-10-02T09:41:40.972Z,5.10
2022-10-02T09:42:40.949Z,5.40
2022-10-02T09:43:40.925Z,4.10
2022-10-02T09:44:40.905Z,5.40
2022-10-02T09:45:40.932Z,5.20
2022-10-02T09:46:40.860Z,4.80
2022-10-02T09:47:40.839Z,4.80
2022-10-02T09:48:40.817Z,5.50
2022-10-02T09:49:40.793Z,5.10
2022-10-02T09:50:40.772Z,5.00
2022-10-02T09:51:40.754Z,5.00
2022-10-02T09:52:42.877Z,4.30
2022-10-02T09:53:40.707Z,4.60
2022-10-02T09:54:40.703Z,4.30
2022-10-02T09:55:40.664Z,6.20
2022-10-02T09:56:40.656Z,5.50
2022-10-02T09:57:40.623Z,4.60
2022-10-02T09:58:40.595Z,4.70
2022-10-02T09:59:40.577Z,4.90
2022-10-02T10:00:40.601Z,5.10
2022-10-02T10:01:40.865Z,4.50
2022-10-02T10:02:40.593Z,4.10
2022-10-02T10:03:40.487Z,4.30
2022-10-02T10:05:01.228Z,4.20
2022-10-02T10:05:40.441Z,4.10
2022-10-02T10:06:40.423Z,4.00
2022-10-02T10:07:40.402Z,4.30
2022-10-02T10:08:40.377Z,4.90
2022-10-02T10:09:40.358Z,4.10
2022-10-02T10:10:40.355Z,4.10
2022-10-02T10:11:40.311Z,3.90
2022-10-02T10:12:40.290Z,3.80
2022-10-02T10:13:40.285Z,4.60
2022-10-02T10:14:40.246Z,4.70
2022-10-02T10:15:40.232Z,3.60
2022-10-02T10:16:40.254Z,3.90
2022-10-02T10:17:40.187Z,3.80
2022-10-02T10:18:40.157Z,4.40
2022-10-02T10:19:40.137Z,3.90
2022-10-02T10:20:40.115Z,3.70
2022-10-02T10:21:40.542Z,3.70
2022-10-02T10:22:40.075Z,5.10
2022-10-02T10:23:40.050Z,3.60
2022-10-02T10:24:40.031Z,4.20
2022-10-02T10:25:40.026Z,4.20
2022-10-02T10:26:40.004Z,4.20
2022-10-02T10:27:39.969Z,3.70
2022-10-02T10:28:39.940Z,4.70
2022-10-02T10:29:39.936Z,4.20
2022-10-02T10:30:39.901Z,3.60
2022-10-02T10:31:40.387Z,3.70
2022-10-02T10:32:39.852Z,3.70
2022-10-02T10:33:39.832Z,4.20
2022-10-02T10:34:39.816Z,3.90
2022-10-02T10:35:39.791Z,3.70
2022-10-02T10:36:43.310Z,5.20
2022-10-02T10:37:39.742Z,4.20
2022-10-02T10:38:39.720Z,4.30
2022-10-02T10:39:39.705Z,3.70
2022-10-02T10:40:39.679Z,3.70
2022-10-02T10:41:40.031Z,3.50
2022-10-02T10:43:03.057Z,2.80
2022-10-02T10:43:39.613Z,3.20
2022-10-02T10:44:39.591Z,3.20
2022-10-02T10:45:39.615Z,3.30
2022-10-02T10:46:39.546Z,3.40
2022-10-02T10:47:39.529Z,3.10
2022-10-02T10:48:39.531Z,3.90
2022-10-02T10:49:39.482Z,3.30
2022-10-02T10:50:39.474Z,3.80
2022-10-02T10:51:39.678Z,3.00
2022-10-02T10:52:39.423Z,2.90
2022-10-02T10:53:39.407Z,3.00
2022-10-02T10:54:39.387Z,2.90
2022-10-02T10:55:39.357Z,3.20
2022-10-02T10:56:39.331Z,3.00
2022-10-02T10:57:39.310Z,2.90
2022-10-02T10:58:39.306Z,3.30
2022-10-02T10:59:39.267Z,2.60
2022-10-02T11:00:39.304Z,2.90
2022-10-02T11:01:39.831Z,3.10
2022-10-02T11:02:39.283Z,2.80
2022-10-02T11:03:39.180Z,2.90
2022-10-02T11:04:39.159Z,2.70
2022-10-02T11:05:39.140Z,3.00
2022-10-02T11:06:42.842Z,2.70
2022-10-02T11:07:39.094Z,2.30
2022-10-02T11:08:39.073Z,2.60
2022-10-02T11:09:39.051Z,2.30
2022-10-02T11:10:39.036Z,2.70
2022-10-02T11:11:39.630Z,3.20
2022-10-02T11:12:38.994Z,2.70
2022-10-02T11:13:38.968Z,2.70
2022-10-02T11:14:38.965Z,3.90
2022-10-02T11:15:38.922Z,2.50
2022-10-02T11:16:38.984Z,3.30
2022-10-02T11:17:38.879Z,3.10
2022-10-02T11:18:38.856Z,4.10
2022-10-02T11:19:38.842Z,2.50
2022-10-02T11:20:38.826Z,2.90
2022-10-02T11:21:39.274Z,3.00
2022-10-02T11:22:38.779Z,3.00
2022-10-02T11:23:38.763Z,2.70
2022-10-02T11:24:38.728Z,3.50
2022-10-02T11:25:38.707Z,2.70
2022-10-02T11:26:38.684Z,2.70
2022-10-02T11:27:38.672Z,2.70
2022-10-02T11:28:38.642Z,2.50
2022-10-02T11:29:38.620Z,3.70
2022-10-02T11:30:41.690Z,2.60
2022-10-02T11:31:39.059Z,2.50
2022-10-02T11:32:38.556Z,2.50
2022-10-02T11:33:38.534Z,2.70
2022-10-02T11:34:38.518Z,2.10
2022-10-02T11:35:38.496Z,3.00
2022-10-02T11:36:38.481Z,3.10
2022-10-02T11:37:38.448Z,3.20
2022-10-02T11:38:38.428Z,2.90
2022-10-02T11:39:38.405Z,2.40
2022-10-02T11:40:38.389Z,2.30
2022-10-02T11:41:38.830Z,3.00
2022-10-02T11:42:38.350Z,2.80
2022-10-02T11:43:41.863Z,3.30
2022-10-02T11:44:38.307Z,3.60
2022-10-02T11:45:38.315Z,4.10
2022-10-02T11:46:38.273Z,2.90
2022-10-02T11:47:38.234Z,2.70
2022-10-02T11:48:38.209Z,3.10
2022-10-02T11:49:38.191Z,2.70
2022-10-02T11:50:38.167Z,2.40
2022-10-02T11:51:38.706Z,3.00
2022-10-02T11:52:38.128Z,2.60
2022-10-02T11:53:38.104Z,2.90
2022-10-02T11:54:38.081Z,2.90
2022-10-02T11:55:38.065Z,2.80
2022-10-02T11:56:38.042Z,3.10
2022-10-02T11:57:38.023Z,2.50
2022-10-02T11:58:37.998Z,2.60
2022-10-02T11:59:37.976Z,2.80
2022-10-02T12:00:37.960Z,2.80
2022-10-02T12:01:38.445Z,2.70
2022-10-02T12:02:37.980Z,2.70
2022-10-02T12:03:37.894Z,2.60
2022-10-02T12:04:37.868Z,2.80
2022-10-02T12:05:37.851Z,2.20
2022-10-02T12:06:37.829Z,2.60
2022-10-02T12:07:37.810Z,3.00
2022-10-02T12:08:37.785Z,2.10
2022-10-02T12:09:37.783Z,2.50
2022-10-02T12:10:37.742Z,2.10
2022-10-02T12:11:37.966Z,2.30
2022-10-02T12:12:37.704Z,3.00
2022-10-02T12:13:37.684Z,2.70
2022-10-02T12:14:37.654Z,2.40
2022-10-02T12:15:37.636Z,2.60
2022-10-02T12:16:37.684Z,2.40
2022-10-02T12:17:37.591Z,2.60
2022-10-02T12:18:37.604Z,1.80
2022-10-02T12:19:37.550Z,2.30
2022-10-02T12:20:37.530Z,2.30
2022-10-02T12:21:37.745Z,2.30
2022-10-02T12:22:37.483Z,2.70
2022-10-02T12:23:37.465Z,2.40
2022-10-02T12:24:37.439Z,2.20
2022-10-02T12:25:37.423Z,2.20
2022-10-02T12:26:37.397Z,2.50
2022-10-02T12:27:37.384Z,2.30
2022-10-02T12:28:37.361Z,3.10
2022-10-02T12:29:37.336Z,2.60
2022-10-02T12:30:37.312Z,2.10
2022-10-02T12:31:37.678Z,2.10
2022-10-02T12:32:37.270Z,1.80
2022-10-02T12:33:37.247Z,2.80
2022-10-02T12:34:37.248Z,2.50
2022-10-02T12:35:37.206Z,1.80
2022-10-02T12:36:37.207Z,3.10
2022-10-02T12:37:37.163Z,3.00
2022-10-02T12:38:37.140Z,2.30
2022-10-02T12:39:37.122Z,2.20
2022-10-02T12:40:37.099Z,2.20
2022-10-02T12:41:37.323Z,2.20
2022-10-02T12:42:37.057Z,2.10
2022-10-02T12:43:37.040Z,1.70
2022-10-02T12:44:37.013Z,2.60
2022-10-02T12:45:37.110Z,2.20
2022-10-02T12:46:36.971Z,2.40
2022-10-02T12:47:36.956Z,2.10
2022-10-02T12:48:36.930Z,2.50
2022-10-02T12:49:36.909Z,2.60
2022-10-02T12:50:36.910Z,2.30
2022-10-02T12:51:37.164Z,2.30
2022-10-02T12:52:36.842Z,2.00
2022-10-02T12:53:36.821Z,2.40
2022-10-02T12:54:36.798Z,2.40
2022-10-02T12:55:36.781Z,2.80
2022-10-02T12:56:36.756Z,2.10
2022-10-02T12:57:39.180Z,2.30
2022-10-02T12:58:36.715Z,2.10
2022-10-02T12:59:36.695Z,3.10
2022-10-02T13:00:36.671Z,2.10
2022-10-02T13:01:36.963Z,1.80
2022-10-02T13:02:59.315Z,1.90
2022-10-02T13:03:36.607Z,2.80
2022-10-02T13:04:36.912Z,2.30
2022-10-02T13:05:36.565Z,2.40
2022-10-02T13:06:36.562Z,2.00
2022-10-02T13:07:36.529Z,2.50
2022-10-02T13:08:36.502Z,2.30